sensor_id;sensor_type;location;lat;lon;timestamp;P1;durP1;ratioP1;P2;durP2;ratioP2
11338;SDS011;5724;42.684;23.252;2024-01-30T00:01:52;6.40;;;5.83;;
11338;SDS011;5724;42.684;23.252;2024-01-30T00:04:18;6.70;;;6.10;;
11338;SDS011;5724;42.684;23.252;2024-01-30T00:06:44;6.60;;;6.00;;
11338;SDS011;5724;42.684;23.252;2024-01-30T00:09:09;6.53;;;5.70;;
11338;SDS011;5724;42.684;23.252;2024-01-30T00:11:36;5.60;;;5.20;;
11338;SDS011;5724;42.684;23.252;2024-01-30T00:14:02;4.80;;;4.50;;
11338;SDS011;5724;42.684;23.252;2024-01-30T00:16:28;5.53;;;5.00;;
11338;SDS011;5724;42.684;23.252;2024-01-30T00:18:54;5.17;;;4.77;;
11338;SDS011;5724;42.684;23.252;2024-01-30T00:21:20;5.57;;;5.13;;
11338;SDS011;5724;42.684;23.252;2024-01-30T00:23:46;6.23;;;5.63;;
11338;SDS011;5724;42.684;23.252;2024-01-30T00:26:12;6.47;;;5.83;;
11338;SDS011;5724;42.684;23.252;2024-01-30T00:28:40;7.07;;;6.43;;
11338;SDS011;5724;42.684;23.252;2024-01-30T00:31:06;8.37;;;6.77;;
11338;SDS011;5724;42.684;23.252;2024-01-30T00:33:31;6.00;;;5.57;;
11338;SDS011;5724;42.684;23.252;2024-01-30T00:35:57;6.70;;;6.10;;
11338;SDS011;5724;42.684;23.252;2024-01-30T00:38:22;5.80;;;5.37;;
11338;SDS011;5724;42.684;23.252;2024-01-30T00:40:48;6.07;;;5.57;;
11338;SDS011;5724;42.684;23.252;2024-01-30T00:43:14;5.53;;;5.13;;
11338;SDS011;5724;42.684;23.252;2024-01-30T00:45:40;5.90;;;5.40;;
11338;SDS011;5724;42.684;23.252;2024-01-30T00:48:06;5.37;;;4.87;;
11338;SDS011;5724;42.684;23.252;2024-01-30T00:50:32;5.40;;;5.00;;
11338;SDS011;5724;42.684;23.252;2024-01-30T00:52:57;5.37;;;4.97;;
11338;SDS011;5724;42.684;23.252;2024-01-30T00:55:23;5.53;;;5.03;;
11338;SDS011;5724;42.684;23.252;2024-01-30T00:57:48;5.77;;;5.27;;
11338;SDS011;5724;42.684;23.252;2024-01-30T01:00:14;5.50;;;5.10;;
11338;SDS011;5724;42.684;23.252;2024-01-30T01:02:42;5.70;;;5.20;;
11338;SDS011;5724;42.684;23.252;2024-01-30T01:05:08;5.93;;;5.17;;
11338;SDS011;5724;42.684;23.252;2024-01-30T01:07:33;6.03;;;5.53;;
11338;SDS011;5724;42.684;23.252;2024-01-30T01:09:59;6.10;;;5.60;;
11338;SDS011;5724;42.684;23.252;2024-01-30T01:12:24;5.50;;;5.10;;
11338;SDS011;5724;42.684;23.252;2024-01-30T01:14:50;5.80;;;5.40;;
11338;SDS011;5724;42.684;23.252;2024-01-30T01:17:15;6.27;;;5.60;;
11338;SDS011;5724;42.684;23.252;2024-01-30T01:19:41;6.47;;;5.90;;
11338;SDS011;5724;42.684;23.252;2024-01-30T01:22:06;5.87;;;5.37;;
11338;SDS011;5724;42.684;23.252;2024-01-30T01:24:32;7.10;;;6.40;;
11338;SDS011;5724;42.684;23.252;2024-01-30T01:26:58;6.77;;;6.17;;
11338;SDS011;5724;42.684;23.252;2024-01-30T01:29:24;6.27;;;5.80;;
11338;SDS011;5724;42.684;23.252;2024-01-30T01:31:56;6.50;;;5.90;;
11338;SDS011;5724;42.684;23.252;2024-01-30T01:34:22;5.50;;;5.10;;
11338;SDS011;5724;42.684;23.252;2024-01-30T01:36:51;6.50;;;5.70;;
11338;SDS011;5724;42.684;23.252;2024-01-30T01:39:20;6.13;;;5.63;;
11338;SDS011;5724;42.684;23.252;2024-01-30T01:41:47;6.63;;;6.13;;
11338;SDS011;5724;42.684;23.252;2024-01-30T01:44:13;6.50;;;5.90;;
11338;SDS011;5724;42.684;23.252;2024-01-30T01:46:38;6.87;;;6.17;;
11338;SDS011;5724;42.684;23.252;2024-01-30T01:49:04;6.50;;;5.90;;
11338;SDS011;5724;42.684;23.252;2024-01-30T01:51:31;6.30;;;5.70;;
11338;SDS011;5724;42.684;23.252;2024-01-30T01:53:58;5.83;;;5.33;;
11338;SDS011;5724;42.684;23.252;2024-01-30T01:56:28;6.13;;;5.53;;
11338;SDS011;5724;42.684;23.252;2024-01-30T01:58:55;6.47;;;5.80;;
11338;SDS011;5724;42.684;23.252;2024-01-30T02:01:24;7.37;;;5.93;;
11338;SDS011;5724;42.684;23.252;2024-01-30T02:03:52;6.10;;;5.27;;
11338;SDS011;5724;42.684;23.252;2024-01-30T02:06:18;5.93;;;5.43;;
11338;SDS011;5724;42.684;23.252;2024-01-30T02:08:45;5.13;;;4.63;;
11338;SDS011;5724;42.684;23.252;2024-01-30T02:11:10;5.40;;;5.00;;
11338;SDS011;5724;42.684;23.252;2024-01-30T02:13:36;5.27;;;4.90;;
11338;SDS011;5724;42.684;23.252;2024-01-30T02:16:02;5.23;;;4.83;;
11338;SDS011;5724;42.684;23.252;2024-01-30T02:18:27;5.23;;;4.73;;
11338;SDS011;5724;42.684;23.252;2024-01-30T02:20:54;5.40;;;5.03;;
11338;SDS011;5724;42.684;23.252;2024-01-30T02:23:24;5.37;;;4.97;;
11338;SDS011;5724;42.684;23.252;2024-01-30T02:25:52;5.67;;;5.27;;
11338;SDS011;5724;42.684;23.252;2024-01-30T02:28:18;4.80;;;4.50;;
11338;SDS011;5724;42.684;23.252;2024-01-30T02:30:44;4.60;;;4.30;;
11338;SDS011;5724;42.684;23.252;2024-01-30T02:33:11;5.40;;;5.10;;
11338;SDS011;5724;42.684;23.252;2024-01-30T02:35:37;4.70;;;4.40;;
11338;SDS011;5724;42.684;23.252;2024-01-30T02:38:03;4.80;;;4.40;;
11338;SDS011;5724;42.684;23.252;2024-01-30T02:40:28;4.87;;;4.57;;
11338;SDS011;5724;42.684;23.252;2024-01-30T02:42:54;4.73;;;4.33;;
11338;SDS011;5724;42.684;23.252;2024-01-30T02:45:19;5.20;;;4.90;;
11338;SDS011;5724;42.684;23.252;2024-01-30T02:47:45;4.50;;;4.20;;
11338;SDS011;5724;42.684;23.252;2024-01-30T02:50:11;4.97;;;4.50;;
11338;SDS011;5724;42.684;23.252;2024-01-30T02:52:36;5.10;;;4.80;;
11338;SDS011;5724;42.684;23.252;2024-01-30T02:55:02;5.20;;;4.90;;
11338;SDS011;5724;42.684;23.252;2024-01-30T02:57:28;4.80;;;4.50;;
11338;SDS011;5724;42.684;23.252;2024-01-30T02:59:54;4.77;;;4.37;;
11338;SDS011;5724;42.684;23.252;2024-01-30T03:02:19;4.80;;;4.50;;
11338;SDS011;5724;42.684;23.252;2024-01-30T03:04:45;5.50;;;5.10;;
11338;SDS011;5724;42.684;23.252;2024-01-30T03:07:11;4.60;;;4.30;;
11338;SDS011;5724;42.684;23.252;2024-01-30T03:09:38;4.53;;;4.23;;
11338;SDS011;5724;42.684;23.252;2024-01-30T03:12:04;4.57;;;4.17;;
11338;SDS011;5724;42.684;23.252;2024-01-30T03:14:30;4.53;;;4.23;;
11338;SDS011;5724;42.684;23.252;2024-01-30T03:16:57;4.60;;;4.30;;
11338;SDS011;5724;42.684;23.252;2024-01-30T03:19:22;4.57;;;4.17;;
11338;SDS011;5724;42.684;23.252;2024-01-30T03:21:48;4.70;;;4.33;;
11338;SDS011;5724;42.684;23.252;2024-01-30T03:24:14;4.73;;;4.33;;
11338;SDS011;5724;42.684;23.252;2024-01-30T03:26:39;4.13;;;3.83;;
11338;SDS011;5724;42.684;23.252;2024-01-30T03:29:05;4.30;;;3.97;;
11338;SDS011;5724;42.684;23.252;2024-01-30T03:31:30;4.77;;;4.37;;
11338;SDS011;5724;42.684;23.252;2024-01-30T03:33:56;4.57;;;4.17;;
11338;SDS011;5724;42.684;23.252;2024-01-30T03:36:21;3.60;;;3.40;;
11338;SDS011;5724;42.684;23.252;2024-01-30T03:38:47;4.10;;;3.80;;
11338;SDS011;5724;42.684;23.252;2024-01-30T03:41:12;3.93;;;3.53;;
11338;SDS011;5724;42.684;23.252;2024-01-30T03:43:37;3.47;;;3.27;;
11338;SDS011;5724;42.684;23.252;2024-01-30T03:46:03;4.00;;;3.10;;
11338;SDS011;5724;42.684;23.252;2024-01-30T03:48:29;3.80;;;3.50;;
11338;SDS011;5724;42.684;23.252;2024-01-30T03:50:55;3.30;;;3.10;;
11338;SDS011;5724;42.684;23.252;2024-01-30T03:53:20;3.83;;;3.63;;
11338;SDS011;5724;42.684;23.252;2024-01-30T03:55:47;3.70;;;3.50;;
11338;SDS011;5724;42.684;23.252;2024-01-30T03:58:13;3.67;;;3.47;;
11338;SDS011;5724;42.684;23.252;2024-01-30T04:00:38;3.97;;;3.67;;
11338;SDS011;5724;42.684;23.252;2024-01-30T04:03:04;4.03;;;3.80;;
11338;SDS011;5724;42.684;23.252;2024-01-30T04:05:30;3.83;;;3.57;;
11338;SDS011;5724;42.684;23.252;2024-01-30T04:07:55;3.63;;;3.40;;
11338;SDS011;5724;42.684;23.252;2024-01-30T04:10:21;4.00;;;3.63;;
11338;SDS011;5724;42.684;23.252;2024-01-30T04:12:46;4.10;;;3.80;;
11338;SDS011;5724;42.684;23.252;2024-01-30T04:15:12;4.60;;;3.53;;
11338;SDS011;5724;42.684;23.252;2024-01-30T04:17:38;4.00;;;3.70;;
11338;SDS011;5724;42.684;23.252;2024-01-30T04:20:05;4.07;;;3.87;;
11338;SDS011;5724;42.684;23.252;2024-01-30T04:22:31;4.47;;;3.50;;
11338;SDS011;5724;42.684;23.252;2024-01-30T04:24:56;3.63;;;3.37;;
11338;SDS011;5724;42.684;23.252;2024-01-30T04:27:22;3.87;;;3.57;;
11338;SDS011;5724;42.684;23.252;2024-01-30T04:29:47;3.80;;;3.60;;
11338;SDS011;5724;42.684;23.252;2024-01-30T04:32:13;4.10;;;3.80;;
11338;SDS011;5724;42.684;23.252;2024-01-30T04:34:38;3.80;;;3.60;;
11338;SDS011;5724;42.684;23.252;2024-01-30T04:37:04;3.97;;;3.67;;
11338;SDS011;5724;42.684;23.252;2024-01-30T04:39:29;3.87;;;3.57;;
11338;SDS011;5724;42.684;23.252;2024-01-30T04:41:55;4.00;;;3.70;;
11338;SDS011;5724;42.684;23.252;2024-01-30T04:44:21;3.20;;;3.00;;
11338;SDS011;5724;42.684;23.252;2024-01-30T04:46:46;4.30;;;3.33;;
11338;SDS011;5724;42.684;23.252;2024-01-30T04:49:12;3.50;;;3.27;;
11338;SDS011;5724;42.684;23.252;2024-01-30T04:51:37;4.40;;;3.40;;
11338;SDS011;5724;42.684;23.252;2024-01-30T04:54:03;3.57;;;3.37;;
11338;SDS011;5724;42.684;23.252;2024-01-30T04:56:28;4.30;;;3.23;;
11338;SDS011;5724;42.684;23.252;2024-01-30T04:58:54;4.33;;;3.10;;
11338;SDS011;5724;42.684;23.252;2024-01-30T05:01:19;5.70;;;3.87;;
11338;SDS011;5724;42.684;23.252;2024-01-30T05:03:45;4.10;;;3.70;;
11338;SDS011;5724;42.684;23.252;2024-01-30T05:06:10;4.47;;;4.17;;
11338;SDS011;5724;42.684;23.252;2024-01-30T05:08:36;4.50;;;3.80;;
11338;SDS011;5724;42.684;23.252;2024-01-30T05:11:10;4.30;;;4.00;;
11338;SDS011;5724;42.684;23.252;2024-01-30T05:13:36;4.87;;;4.47;;
11338;SDS011;5724;42.684;23.252;2024-01-30T05:16:02;6.53;;;4.27;;
11338;SDS011;5724;42.684;23.252;2024-01-30T05:18:29;6.40;;;4.30;;
11338;SDS011;5724;42.684;23.252;2024-01-30T05:20:54;8.07;;;3.90;;
11338;SDS011;5724;42.684;23.252;2024-01-30T05:23:20;5.50;;;4.50;;
11338;SDS011;5724;42.684;23.252;2024-01-30T05:25:45;5.00;;;4.60;;
11338;SDS011;5724;42.684;23.252;2024-01-30T05:28:11;5.03;;;4.37;;
11338;SDS011;5724;42.684;23.252;2024-01-30T05:30:36;5.20;;;4.70;;
11338;SDS011;5724;42.684;23.252;2024-01-30T05:33:02;4.77;;;4.37;;
11338;SDS011;5724;42.684;23.252;2024-01-30T05:35:27;4.80;;;4.43;;
11338;SDS011;5724;42.684;23.252;2024-01-30T05:37:53;6.90;;;5.60;;
11338;SDS011;5724;42.684;23.252;2024-01-30T05:40:18;6.40;;;5.87;;
11338;SDS011;5724;42.684;23.252;2024-01-30T05:42:44;8.00;;;6.23;;
11338;SDS011;5724;42.684;23.252;2024-01-30T05:45:09;7.53;;;6.20;;
11338;SDS011;5724;42.684;23.252;2024-01-30T05:47:35;12.43;;;6.37;;
11338;SDS011;5724;42.684;23.252;2024-01-30T05:50:01;8.83;;;6.50;;
11338;SDS011;5724;42.684;23.252;2024-01-30T05:52:26;10.33;;;8.10;;
11338;SDS011;5724;42.684;23.252;2024-01-30T05:54:52;11.63;;;7.70;;
11338;SDS011;5724;42.684;23.252;2024-01-30T05:57:17;14.73;;;10.83;;
11338;SDS011;5724;42.684;23.252;2024-01-30T05:59:44;13.90;;;8.30;;
11338;SDS011;5724;42.684;23.252;2024-01-30T06:02:10;9.03;;;7.63;;
11338;SDS011;5724;42.684;23.252;2024-01-30T06:04:36;9.20;;;8.23;;
11338;SDS011;5724;42.684;23.252;2024-01-30T06:07:02;11.60;;;9.03;;
11338;SDS011;5724;42.684;23.252;2024-01-30T06:09:28;12.90;;;8.57;;
11338;SDS011;5724;42.684;23.252;2024-01-30T06:11:54;9.93;;;8.13;;
11338;SDS011;5724;42.684;23.252;2024-01-30T06:14:20;8.87;;;7.13;;
11338;SDS011;5724;42.684;23.252;2024-01-30T06:16:45;10.07;;;6.93;;
11338;SDS011;5724;42.684;23.252;2024-01-30T06:19:11;10.87;;;7.20;;
11338;SDS011;5724;42.684;23.252;2024-01-30T06:21:36;9.07;;;6.93;;
11338;SDS011;5724;42.684;23.252;2024-01-30T06:24:03;6.67;;;6.07;;
11338;SDS011;5724;42.684;23.252;2024-01-30T06:26:29;4.73;;;4.27;;
11338;SDS011;5724;42.684;23.252;2024-01-30T06:28:54;5.67;;;4.07;;
11338;SDS011;5724;42.684;23.252;2024-01-30T06:31:20;8.23;;;4.60;;
11338;SDS011;5724;42.684;23.252;2024-01-30T06:33:48;6.20;;;5.60;;
11338;SDS011;5724;42.684;23.252;2024-01-30T06:36:14;6.37;;;5.60;;
11338;SDS011;5724;42.684;23.252;2024-01-30T06:38:40;4.93;;;3.90;;
11338;SDS011;5724;42.684;23.252;2024-01-30T06:41:06;4.87;;;4.20;;
11338;SDS011;5724;42.684;23.252;2024-01-30T06:43:32;5.97;;;3.80;;
11338;SDS011;5724;42.684;23.252;2024-01-30T06:45:57;4.40;;;4.03;;
11338;SDS011;5724;42.684;23.252;2024-01-30T06:48:23;3.47;;;3.20;;
11338;SDS011;5724;42.684;23.252;2024-01-30T06:50:48;3.70;;;3.40;;
11338;SDS011;5724;42.684;23.252;2024-01-30T06:53:15;8.87;;;3.93;;
11338;SDS011;5724;42.684;23.252;2024-01-30T06:55:41;3.63;;;3.33;;
11338;SDS011;5724;42.684;23.252;2024-01-30T06:58:06;4.57;;;3.50;;
11338;SDS011;5724;42.684;23.252;2024-01-30T07:00:32;3.73;;;3.43;;
11338;SDS011;5724;42.684;23.252;2024-01-30T07:02:58;5.80;;;3.73;;
11338;SDS011;5724;42.684;23.252;2024-01-30T07:05:23;3.60;;;3.40;;
11338;SDS011;5724;42.684;23.252;2024-01-30T07:07:49;5.13;;;3.87;;
11338;SDS011;5724;42.684;23.252;2024-01-30T07:10:14;6.07;;;3.70;;
11338;SDS011;5724;42.684;23.252;2024-01-30T07:12:40;4.77;;;4.10;;
11338;SDS011;5724;42.684;23.252;2024-01-30T07:15:05;6.17;;;3.43;;
11338;SDS011;5724;42.684;23.252;2024-01-30T07:17:34;4.83;;;3.10;;
11338;SDS011;5724;42.684;23.252;2024-01-30T07:20:00;15.40;;;3.40;;
11338;SDS011;5724;42.684;23.252;2024-01-30T07:22:26;3.90;;;3.60;;
11338;SDS011;5724;42.684;23.252;2024-01-30T07:24:51;4.43;;;3.20;;
11338;SDS011;5724;42.684;23.252;2024-01-30T07:27:17;2.93;;;2.73;;
11338;SDS011;5724;42.684;23.252;2024-01-30T07:29:43;2.60;;;2.40;;
11338;SDS011;5724;42.684;23.252;2024-01-30T07:32:08;2.83;;;2.63;;
11338;SDS011;5724;42.684;23.252;2024-01-30T07:34:34;5.43;;;3.40;;
11338;SDS011;5724;42.684;23.252;2024-01-30T07:37:01;3.37;;;3.17;;
11338;SDS011;5724;42.684;23.252;2024-01-30T07:39:27;3.57;;;3.37;;
11338;SDS011;5724;42.684;23.252;2024-01-30T07:41:53;7.40;;;3.17;;
11338;SDS011;5724;42.684;23.252;2024-01-30T07:44:18;4.10;;;3.20;;
11338;SDS011;5724;42.684;23.252;2024-01-30T07:46:44;3.03;;;2.83;;
11338;SDS011;5724;42.684;23.252;2024-01-30T07:49:09;3.37;;;3.17;;
11338;SDS011;5724;42.684;23.252;2024-01-30T07:51:35;3.43;;;3.23;;
11338;SDS011;5724;42.684;23.252;2024-01-30T07:54:00;5.07;;;3.10;;
11338;SDS011;5724;42.684;23.252;2024-01-30T07:56:26;6.30;;;2.67;;
11338;SDS011;5724;42.684;23.252;2024-01-30T07:58:52;3.03;;;2.90;;
11338;SDS011;5724;42.684;23.252;2024-01-30T08:01:18;4.43;;;4.13;;
11338;SDS011;5724;42.684;23.252;2024-01-30T08:03:43;3.93;;;3.60;;
11338;SDS011;5724;42.684;23.252;2024-01-30T08:06:09;4.20;;;3.77;;
11338;SDS011;5724;42.684;23.252;2024-01-30T08:08:35;5.03;;;4.13;;
11338;SDS011;5724;42.684;23.252;2024-01-30T08:11:03;4.70;;;3.90;;
11338;SDS011;5724;42.684;23.252;2024-01-30T08:13:28;4.07;;;3.70;;
11338;SDS011;5724;42.684;23.252;2024-01-30T08:15:54;4.60;;;3.63;;
11338;SDS011;5724;42.684;23.252;2024-01-30T08:18:19;4.50;;;3.73;;
11338;SDS011;5724;42.684;23.252;2024-01-30T08:20:45;7.10;;;4.20;;
11338;SDS011;5724;42.684;23.252;2024-01-30T08:23:10;3.67;;;3.37;;
11338;SDS011;5724;42.684;23.252;2024-01-30T08:25:36;4.33;;;3.93;;
11338;SDS011;5724;42.684;23.252;2024-01-30T08:28:02;7.73;;;4.17;;
11338;SDS011;5724;42.684;23.252;2024-01-30T08:30:29;4.27;;;3.97;;
11338;SDS011;5724;42.684;23.252;2024-01-30T08:32:54;3.87;;;3.57;;
11338;SDS011;5724;42.684;23.252;2024-01-30T08:35:20;4.77;;;4.47;;
11338;SDS011;5724;42.684;23.252;2024-01-30T08:37:45;4.73;;;4.43;;
11338;SDS011;5724;42.684;23.252;2024-01-30T08:40:11;5.33;;;4.83;;
11338;SDS011;5724;42.684;23.252;2024-01-30T08:42:36;4.37;;;3.87;;
11338;SDS011;5724;42.684;23.252;2024-01-30T08:45:02;6.70;;;4.23;;
11338;SDS011;5724;42.684;23.252;2024-01-30T08:47:29;4.90;;;4.50;;
11338;SDS011;5724;42.684;23.252;2024-01-30T08:49:55;5.27;;;4.77;;
11338;SDS011;5724;42.684;23.252;2024-01-30T08:52:20;4.33;;;4.03;;
11338;SDS011;5724;42.684;23.252;2024-01-30T08:54:46;4.40;;;4.10;;
11338;SDS011;5724;42.684;23.252;2024-01-30T08:57:13;4.27;;;3.97;;
11338;SDS011;5724;42.684;23.252;2024-01-30T08:59:38;6.27;;;4.67;;
11338;SDS011;5724;42.684;23.252;2024-01-30T09:02:05;6.73;;;4.53;;
11338;SDS011;5724;42.684;23.252;2024-01-30T09:04:31;6.20;;;4.20;;
11338;SDS011;5724;42.684;23.252;2024-01-30T09:06:56;4.87;;;4.47;;
11338;SDS011;5724;42.684;23.252;2024-01-30T09:09:22;5.67;;;4.53;;
11338;SDS011;5724;42.684;23.252;2024-01-30T09:11:47;4.23;;;3.93;;
11338;SDS011;5724;42.684;23.252;2024-01-30T09:14:13;7.53;;;4.67;;
11338;SDS011;5724;42.684;23.252;2024-01-30T09:16:38;8.27;;;4.60;;
11338;SDS011;5724;42.684;23.252;2024-01-30T09:19:04;5.13;;;4.63;;
11338;SDS011;5724;42.684;23.252;2024-01-30T09:21:29;6.60;;;5.07;;
11338;SDS011;5724;42.684;23.252;2024-01-30T09:24:00;11.57;;;5.60;;
11338;SDS011;5724;42.684;23.252;2024-01-30T09:26:29;6.23;;;5.37;;
11338;SDS011;5724;42.684;23.252;2024-01-30T09:28:54;6.07;;;5.53;;
11338;SDS011;5724;42.684;23.252;2024-01-30T09:31:20;5.13;;;4.67;;
11338;SDS011;5724;42.684;23.252;2024-01-30T09:33:45;6.47;;;5.17;;
11338;SDS011;5724;42.684;23.252;2024-01-30T09:36:13;4.90;;;4.60;;
11338;SDS011;5724;42.684;23.252;2024-01-30T09:38:40;4.70;;;4.30;;
11338;SDS011;5724;42.684;23.252;2024-01-30T09:41:08;4.30;;;3.90;;
11338;SDS011;5724;42.684;23.252;2024-01-30T09:43:38;5.20;;;4.77;;
11338;SDS011;5724;42.684;23.252;2024-01-30T09:46:08;4.67;;;4.37;;
11338;SDS011;5724;42.684;23.252;2024-01-30T09:48:38;5.03;;;4.73;;
11338;SDS011;5724;42.684;23.252;2024-01-30T09:51:06;4.57;;;4.27;;
11338;SDS011;5724;42.684;23.252;2024-01-30T09:53:33;5.43;;;5.03;;
11338;SDS011;5724;42.684;23.252;2024-01-30T09:55:58;4.90;;;4.50;;
11338;SDS011;5724;42.684;23.252;2024-01-30T09:58:25;4.20;;;3.80;;
11338;SDS011;5724;42.684;23.252;2024-01-30T10:00:51;4.30;;;4.00;;
11338;SDS011;5724;42.684;23.252;2024-01-30T10:03:24;4.27;;;3.97;;
11338;SDS011;5724;42.684;23.252;2024-01-30T10:05:51;4.00;;;3.60;;
11338;SDS011;5724;42.684;23.252;2024-01-30T10:08:36;4.27;;;3.97;;
11338;SDS011;5724;42.684;23.252;2024-01-30T10:11:03;4.03;;;3.83;;
11338;SDS011;5724;42.684;23.252;2024-01-30T10:13:29;4.73;;;4.33;;
11338;SDS011;5724;42.684;23.252;2024-01-30T10:15:54;4.33;;;3.93;;
11338;SDS011;5724;42.684;23.252;2024-01-30T10:18:22;3.77;;;3.33;;
11338;SDS011;5724;42.684;23.252;2024-01-30T10:20:47;3.90;;;3.60;;
11338;SDS011;5724;42.684;23.252;2024-01-30T10:23:13;4.30;;;3.90;;
11338;SDS011;5724;42.684;23.252;2024-01-30T10:25:40;4.90;;;4.50;;
11338;SDS011;5724;42.684;23.252;2024-01-30T10:28:06;6.07;;;3.63;;
11338;SDS011;5724;42.684;23.252;2024-01-30T10:30:33;6.47;;;3.57;;
11338;SDS011;5724;42.684;23.252;2024-01-30T10:32:59;3.53;;;3.17;;
11338;SDS011;5724;42.684;23.252;2024-01-30T10:35:24;3.67;;;3.40;;
11338;SDS011;5724;42.684;23.252;2024-01-30T10:37:50;4.10;;;3.70;;
11338;SDS011;5724;42.684;23.252;2024-01-30T10:40:17;3.90;;;3.60;;
11338;SDS011;5724;42.684;23.252;2024-01-30T10:42:49;4.10;;;3.80;;
11338;SDS011;5724;42.684;23.252;2024-01-30T10:45:21;3.50;;;3.20;;
11338;SDS011;5724;42.684;23.252;2024-01-30T10:47:49;4.03;;;3.07;;
11338;SDS011;5724;42.684;23.252;2024-01-30T10:50:15;3.40;;;3.20;;
11338;SDS011;5724;42.684;23.252;2024-01-30T10:52:42;3.67;;;3.37;;
11338;SDS011;5724;42.684;23.252;2024-01-30T10:55:08;3.70;;;3.50;;
11338;SDS011;5724;42.684;23.252;2024-01-30T10:57:35;4.40;;;4.10;;
11338;SDS011;5724;42.684;23.252;2024-01-30T11:00:02;6.83;;;3.63;;
11338;SDS011;5724;42.684;23.252;2024-01-30T11:02:30;7.87;;;3.23;;
11338;SDS011;5724;42.684;23.252;2024-01-30T11:04:58;4.27;;;3.73;;
11338;SDS011;5724;42.684;23.252;2024-01-30T11:07:28;3.53;;;3.30;;
11338;SDS011;5724;42.684;23.252;2024-01-30T11:12:23;2.80;;;2.63;;
11338;SDS011;5724;42.684;23.252;2024-01-30T11:15:00;3.50;;;3.20;;
11338;SDS011;5724;42.684;23.252;2024-01-30T11:17:39;7.57;;;3.90;;
11338;SDS011;5724;42.684;23.252;2024-01-30T11:20:19;3.83;;;3.53;;
11338;SDS011;5724;42.684;23.252;2024-01-30T11:22:51;3.87;;;3.57;;
11338;SDS011;5724;42.684;23.252;2024-01-30T11:25:21;3.60;;;3.40;;
11338;SDS011;5724;42.684;23.252;2024-01-30T11:27:49;3.70;;;3.40;;
11338;SDS011;5724;42.684;23.252;2024-01-30T11:30:22;4.53;;;3.37;;
11338;SDS011;5724;42.684;23.252;2024-01-30T11:33:08;4.17;;;2.87;;
11338;SDS011;5724;42.684;23.252;2024-01-30T11:35:39;4.43;;;2.93;;
11338;SDS011;5724;42.684;23.252;2024-01-30T11:38:07;3.40;;;3.10;;
11338;SDS011;5724;42.684;23.252;2024-01-30T11:40:34;3.77;;;3.40;;
11338;SDS011;5724;42.684;23.252;2024-01-30T11:43:03;3.53;;;3.27;;
11338;SDS011;5724;42.684;23.252;2024-01-30T11:45:30;3.63;;;3.27;;
11338;SDS011;5724;42.684;23.252;2024-01-30T11:47:56;3.43;;;3.23;;
11338;SDS011;5724;42.684;23.252;2024-01-30T11:50:22;3.10;;;2.83;;
11338;SDS011;5724;42.684;23.252;2024-01-30T11:52:48;3.77;;;3.50;;
11338;SDS011;5724;42.684;23.252;2024-01-30T11:55:14;4.30;;;3.20;;
11338;SDS011;5724;42.684;23.252;2024-01-30T11:57:40;3.50;;;3.30;;
11338;SDS011;5724;42.684;23.252;2024-01-30T12:00:06;3.50;;;3.20;;
11338;SDS011;5724;42.684;23.252;2024-01-30T12:02:40;4.10;;;3.80;;
11338;SDS011;5724;42.684;23.252;2024-01-30T12:05:06;3.83;;;3.57;;
11338;SDS011;5724;42.684;23.252;2024-01-30T12:07:32;3.47;;;3.27;;
11338;SDS011;5724;42.684;23.252;2024-01-30T12:09:59;3.53;;;3.23;;
11338;SDS011;5724;42.684;23.252;2024-01-30T12:12:28;4.97;;;3.87;;
11338;SDS011;5724;42.684;23.252;2024-01-30T12:14:55;3.33;;;3.13;;
11338;SDS011;5724;42.684;23.252;2024-01-30T12:22:43;4.67;;;4.23;;
11338;SDS011;5724;42.684;23.252;2024-01-30T12:25:12;4.60;;;4.00;;
11338;SDS011;5724;42.684;23.252;2024-01-30T12:27:39;3.90;;;3.60;;
11338;SDS011;5724;42.684;23.252;2024-01-30T12:30:07;3.40;;;3.20;;
11338;SDS011;5724;42.684;23.252;2024-01-30T12:32:36;3.50;;;3.23;;
11338;SDS011;5724;42.684;23.252;2024-01-30T12:35:18;3.13;;;2.93;;
11338;SDS011;5724;42.684;23.252;2024-01-30T12:37:44;3.83;;;3.57;;
11338;SDS011;5724;42.684;23.252;2024-01-30T12:40:12;4.30;;;3.90;;
11338;SDS011;5724;42.684;23.252;2024-01-30T12:42:41;4.17;;;3.90;;
11338;SDS011;5724;42.684;23.252;2024-01-30T12:45:09;4.80;;;4.37;;
11338;SDS011;5724;42.684;23.252;2024-01-30T12:47:34;5.23;;;4.13;;
11338;SDS011;5724;42.684;23.252;2024-01-30T12:50:00;5.10;;;4.70;;
11338;SDS011;5724;42.684;23.252;2024-01-30T12:52:25;4.77;;;4.17;;
11338;SDS011;5724;42.684;23.252;2024-01-30T12:54:51;4.40;;;4.00;;
11338;SDS011;5724;42.684;23.252;2024-01-30T12:57:17;3.40;;;3.20;;
11338;SDS011;5724;42.684;23.252;2024-01-30T12:59:47;3.70;;;3.40;;
11338;SDS011;5724;42.684;23.252;2024-01-30T13:02:14;4.03;;;3.77;;
11338;SDS011;5724;42.684;23.252;2024-01-30T13:04:40;4.07;;;3.77;;
11338;SDS011;5724;42.684;23.252;2024-01-30T13:07:06;5.03;;;3.90;;
11338;SDS011;5724;42.684;23.252;2024-01-30T13:09:31;4.53;;;4.13;;
11338;SDS011;5724;42.684;23.252;2024-01-30T13:11:58;4.53;;;4.23;;
11338;SDS011;5724;42.684;23.252;2024-01-30T13:14:24;5.03;;;4.57;;
11338;SDS011;5724;42.684;23.252;2024-01-30T13:16:50;4.27;;;4.07;;
11338;SDS011;5724;42.684;23.252;2024-01-30T13:19:16;3.77;;;3.57;;
11338;SDS011;5724;42.684;23.252;2024-01-30T13:21:41;4.07;;;3.77;;
11338;SDS011;5724;42.684;23.252;2024-01-30T13:24:08;4.50;;;4.17;;
11338;SDS011;5724;42.684;23.252;2024-01-30T13:26:34;5.13;;;3.90;;
11338;SDS011;5724;42.684;23.252;2024-01-30T13:29:00;4.43;;;4.13;;
11338;SDS011;5724;42.684;23.252;2024-01-30T13:31:26;6.00;;;4.97;;
11338;SDS011;5724;42.684;23.252;2024-01-30T13:33:52;4.10;;;3.83;;
11338;SDS011;5724;42.684;23.252;2024-01-30T13:36:18;4.40;;;4.00;;
11338;SDS011;5724;42.684;23.252;2024-01-30T13:38:44;4.53;;;4.23;;
11338;SDS011;5724;42.684;23.252;2024-01-30T13:41:10;4.93;;;4.50;;
11338;SDS011;5724;42.684;23.252;2024-01-30T13:43:35;4.50;;;4.20;;
11338;SDS011;5724;42.684;23.252;2024-01-30T13:46:01;4.20;;;3.90;;
11338;SDS011;5724;42.684;23.252;2024-01-30T13:48:27;4.40;;;4.00;;
11338;SDS011;5724;42.684;23.252;2024-01-30T13:50:53;4.53;;;4.23;;
11338;SDS011;5724;42.684;23.252;2024-01-30T13:53:21;6.73;;;4.40;;
11338;SDS011;5724;42.684;23.252;2024-01-30T13:55:47;4.70;;;3.80;;
11338;SDS011;5724;42.684;23.252;2024-01-30T13:58:15;4.67;;;4.37;;
11338;SDS011;5724;42.684;23.252;2024-01-30T14:00:41;4.50;;;4.10;;
11338;SDS011;5724;42.684;23.252;2024-01-30T14:03:06;4.10;;;3.90;;
11338;SDS011;5724;42.684;23.252;2024-01-30T14:05:32;4.30;;;4.00;;
11338;SDS011;5724;42.684;23.252;2024-01-30T14:07:58;4.40;;;4.10;;
11338;SDS011;5724;42.684;23.252;2024-01-30T14:10:25;4.97;;;4.47;;
11338;SDS011;5724;42.684;23.252;2024-01-30T14:12:51;5.33;;;4.93;;
11338;SDS011;5724;42.684;23.252;2024-01-30T14:15:16;5.47;;;5.07;;
11338;SDS011;5724;42.684;23.252;2024-01-30T14:17:45;7.93;;;5.37;;
11338;SDS011;5724;42.684;23.252;2024-01-30T14:20:13;5.40;;;5.00;;
11338;SDS011;5724;42.684;23.252;2024-01-30T14:22:46;5.53;;;4.97;;
11338;SDS011;5724;42.684;23.252;2024-01-30T14:25:12;5.40;;;4.90;;
11338;SDS011;5724;42.684;23.252;2024-01-30T14:27:37;6.97;;;4.33;;
11338;SDS011;5724;42.684;23.252;2024-01-30T14:30:03;6.17;;;5.10;;
11338;SDS011;5724;42.684;23.252;2024-01-30T14:32:29;4.33;;;3.97;;
11338;SDS011;5724;42.684;23.252;2024-01-30T14:34:54;4.83;;;4.00;;
11338;SDS011;5724;42.684;23.252;2024-01-30T14:37:20;5.47;;;4.10;;
11338;SDS011;5724;42.684;23.252;2024-01-30T14:39:46;4.30;;;4.00;;
11338;SDS011;5724;42.684;23.252;2024-01-30T14:42:13;4.93;;;4.53;;
11338;SDS011;5724;42.684;23.252;2024-01-30T14:44:39;8.50;;;4.30;;
11338;SDS011;5724;42.684;23.252;2024-01-30T14:47:05;5.00;;;4.60;;
11338;SDS011;5724;42.684;23.252;2024-01-30T14:49:31;4.63;;;4.33;;
11338;SDS011;5724;42.684;23.252;2024-01-30T14:51:57;5.57;;;4.10;;